Eugene, OR

11:47 PM PDT on April 23, 2017 (GMT -0700)
Mahlon Sweet | | Change Station

Elev 367 ft 44.12 °N, 123.22 °W | Updated 53 minutes ago

Mostly Cloudy
Mostly Cloudy
48 °F
Feels Like 48 °F
N
12
Wind Variable Wind from SSW

Today
High -- | Low -- °F
--% Chance of Precip.
Yesterday
High -- | Low -- °F
Precip. -- in
Pressure 29.88 in
Visibility 9.0 miles
Clouds Few 2500 ft
Few 3500 ft
Overcast 4500 ft
Dew Point 45 °F
Humidity 89%
Rainfall 0.12 in
Snow Depth Not available.
6:15 AM 8:07 PM
Waning Crescent, 7% visible
METAR KEUG 240554Z 21010KT 9SM -RA FEW025 FEW035 OVC045 09/07 A2988 RMK AO2 SLP118 P0002 60005 T00890072 10117 20089 58008
Pressure 29.88 in
Visibility 9.0 miles
Clouds Few 2500 ft
Few 3500 ft
Overcast 4500 ft
Dew Point 45 °F
Humidity 89%
Rainfall 0.12 in
Snow Depth Not available.
6:15 AM 8:07 PM
Waning Crescent, 7% visible
METAR KEUG 240554Z 21010KT 9SM -RA FEW025 FEW035 OVC045 09/07 A2988 RMK AO2 SLP118 P0002 60005 T00890072 10117 20089 58008

Get Severe Weather Alerts

Thanks for signing up!

Be on the lookout for a verification email in your inbox.

You'll start receiving the daily forecast at 8 AM.

×

10-Day Weather Forecast

Almanac

Astronomy

Apr. 23, 2017 Rise Set
Actual Time
Civil Twilight
Nautical Twilight
Astronomical Twilight
Moon
Length of Visible Light
Length of Day
Tomorrow will be .
, % of the Moon is Illuminated

Today's Extremes

State Highs State Lows

Community

WunderPhotos

WunderBlog® & News

Nearby

Air Quality

  Air Quality AQ Index Pollutant
Not available.

Snow Depth

Station Depth Elevation

Earthquake Activity

City Distance Mag. Time & Date
Minimum magnitude displayed is 2.5.

Coastal Water Temperatures

Place Temperature

Stations

Nearby Weather Stations

Station Location Temp. Windchill Dew Point Humidity Wind Precip. Elev Updated Type
                   

Watches & Warnings

There are currently no watches in effect.